createdAt,value
2023-05-22T00:00:40.763Z,81.83
2023-05-22T00:03:10.921Z,81.88
2023-05-22T00:05:41.303Z,81.25
2023-05-22T00:08:12.034Z,81.39
2023-05-22T00:10:40.773Z,81.47
2023-05-22T00:13:09.889Z,80.73
2023-05-22T00:15:39.739Z,81.02
2023-05-22T00:18:08.979Z,80.69
2023-05-22T00:20:39.446Z,80.51
2023-05-22T00:23:10.398Z,80.03
2023-05-22T00:25:39.187Z,80.26
2023-05-22T00:28:07.827Z,80.05
2023-05-22T00:30:37.983Z,80.20
2023-05-22T00:33:10.277Z,79.88
2023-05-22T00:35:39.061Z,80.31
2023-05-22T00:38:07.837Z,79.96
2023-05-22T00:40:36.478Z,80.00
2023-05-22T00:43:08.880Z,80.27
2023-05-22T00:45:38.455Z,80.19
2023-05-22T00:48:09.748Z,80.51
2023-05-22T00:50:38.808Z,79.82
2023-05-22T00:53:07.681Z,80.39
2023-05-22T00:55:36.416Z,80.35
2023-05-22T00:58:07.912Z,80.47
2023-05-22T01:00:38.317Z,80.84
2023-05-22T01:03:09.820Z,80.88
2023-05-22T01:05:39.822Z,80.63
2023-05-22T01:08:10.162Z,81.18
2023-05-22T01:10:41.060Z,81.23
2023-05-22T01:13:21.480Z,81.47
2023-05-22T01:16:01.550Z,81.54
2023-05-22T01:18:38.781Z,81.94
2023-05-22T01:21:14.976Z,82.22
2023-05-22T01:24:33.047Z,82.17
2023-05-22T01:27:38.956Z,82.27
2023-05-22T01:30:54.933Z,82.29
2023-05-22T01:33:26.812Z,82.36
2023-05-22T01:35:58.218Z,82.05
2023-05-22T01:38:26.929Z,82.01
2023-05-22T01:40:56.222Z,82.07
2023-05-22T01:43:24.742Z,81.88
2023-05-22T01:45:53.228Z,81.84
2023-05-22T01:48:21.841Z,82.11
2023-05-22T01:50:54.909Z,82.11
2023-05-22T01:53:33.011Z,81.66
2023-05-22T01:56:09.267Z,81.51
2023-05-22T01:58:46.521Z,81.46
2023-05-22T02:01:16.643Z,81.70
2023-05-22T02:03:47.854Z,81.91
2023-05-22T02:06:18.593Z,81.69
2023-05-22T02:08:47.674Z,81.53
2023-05-22T02:11:17.913Z,81.78
2023-05-22T02:13:47.267Z,81.87
2023-05-22T02:16:15.947Z,81.91
2023-05-22T02:18:45.422Z,81.99
2023-05-22T02:21:13.773Z,81.88
2023-05-22T02:23:43.663Z,81.96
2023-05-22T02:26:12.116Z,82.22
2023-05-22T02:28:42.946Z,81.90
2023-05-22T02:31:11.527Z,81.75
2023-05-22T02:33:40.075Z,81.41
2023-05-22T02:36:10.926Z,81.90
2023-05-22T02:38:39.422Z,82.10
2023-05-22T02:41:09.808Z,82.06
2023-05-22T02:43:39.806Z,82.21
2023-05-22T02:46:08.759Z,82.12
2023-05-22T02:48:37.744Z,82.36
2023-05-22T02:51:06.416Z,82.30
2023-05-22T02:53:35.491Z,82.42
2023-05-22T02:56:04.059Z,82.65
2023-05-22T02:58:33.751Z,82.99
2023-05-22T03:01:03.489Z,83.16
2023-05-22T03:03:32.506Z,83.38
2023-05-22T03:06:01.497Z,83.54
2023-05-22T03:08:29.919Z,83.36
2023-05-22T03:10:59.873Z,82.97
2023-05-22T03:13:28.424Z,83.54
2023-05-22T03:15:59.838Z,83.45
2023-05-22T03:18:28.318Z,83.76
2023-05-22T03:20:56.721Z,83.60
2023-05-22T03:23:25.302Z,83.79
2023-05-22T03:25:53.610Z,84.00
2023-05-22T03:28:22.059Z,84.17
2023-05-22T03:30:50.588Z,83.92
2023-05-22T03:33:20.477Z,84.05
2023-05-22T03:35:49.057Z,84.22
2023-05-22T03:38:17.456Z,84.30
2023-05-22T03:40:45.803Z,84.58
2023-05-22T03:43:14.504Z,84.30
2023-05-22T03:45:46.243Z,84.32
2023-05-22T03:48:14.594Z,84.24
2023-05-22T03:50:44.514Z,84.22
2023-05-22T03:53:12.967Z,84.29
2023-05-22T03:55:41.394Z,84.37
2023-05-22T03:58:09.819Z,83.95
2023-05-22T04:00:39.490Z,83.98
2023-05-22T04:03:13.166Z,84.30
2023-05-22T04:05:54.236Z,84.32
2023-05-22T04:08:22.707Z,84.04
2023-05-22T04:10:51.125Z,84.15
2023-05-22T04:13:20.287Z,84.09
2023-05-22T04:15:50.067Z,84.23
2023-05-22T04:18:18.534Z,84.33
2023-05-22T04:20:48.454Z,84.41
2023-05-22T04:23:17.850Z,84.44
2023-05-22T04:25:48.238Z,84.01
2023-05-22T04:28:18.390Z,84.24
2023-05-22T04:30:46.920Z,84.18
2023-05-22T04:33:16.434Z,84.21
2023-05-22T04:35:44.865Z,84.09
2023-05-22T04:38:14.895Z,84.21
2023-05-22T04:40:43.679Z,84.26
2023-05-22T04:43:12.601Z,84.12
2023-05-22T04:45:42.689Z,83.90
2023-05-22T04:48:12.047Z,83.87
2023-05-22T04:50:40.746Z,84.04
2023-05-22T04:53:09.363Z,83.94
2023-05-22T04:55:39.972Z,83.93
2023-05-22T04:58:09.064Z,83.90
2023-05-22T05:00:38.351Z,83.74
2023-05-22T05:03:08.628Z,83.34
2023-05-22T05:05:37.654Z,83.56
2023-05-22T05:08:07.157Z,83.58
2023-05-22T05:10:35.795Z,83.48
2023-05-22T05:13:06.020Z,83.28
2023-05-22T05:15:34.382Z,83.17
2023-05-22T05:18:02.782Z,83.36
2023-05-22T05:20:31.644Z,83.15
2023-05-22T05:23:00.133Z,82.90
2023-05-22T05:25:28.411Z,82.75
2023-05-22T05:27:57.705Z,82.40
2023-05-22T05:30:30.151Z,82.06
2023-05-22T05:32:58.599Z,81.95
2023-05-22T05:35:27.140Z,81.63
2023-05-22T05:37:55.661Z,81.20
2023-05-22T05:40:24.799Z,81.42
2023-05-22T05:42:53.198Z,81.20
2023-05-22T05:45:21.950Z,81.13
2023-05-22T05:47:52.133Z,80.74
2023-05-22T05:50:21.172Z,80.64
2023-05-22T05:52:49.622Z,80.57
2023-05-22T05:55:18.391Z,80.86
2023-05-22T05:57:46.956Z,80.98
2023-05-22T06:00:16.174Z,80.64
2023-05-22T06:02:47.534Z,80.42
2023-05-22T06:05:20.235Z,80.61
2023-05-22T06:07:49.750Z,80.16
2023-05-22T06:10:18.703Z,80.28
2023-05-22T06:12:46.984Z,79.98
2023-05-22T06:15:15.356Z,80.07
2023-05-22T06:17:43.718Z,80.05
2023-05-22T06:20:14.310Z,79.74
2023-05-22T06:22:44.255Z,80.01
2023-05-22T06:25:12.710Z,79.88
2023-05-22T06:27:41.074Z,79.67
2023-05-22T06:30:10.740Z,79.61
2023-05-22T06:32:39.577Z,79.23
2023-05-22T06:35:10.410Z,79.45
2023-05-22T06:37:39.044Z,79.49
2023-05-22T06:40:11.242Z,79.35
2023-05-22T06:42:39.556Z,79.08
2023-05-22T06:45:09.985Z,79.37
2023-05-22T06:47:38.851Z,79.63
2023-05-22T06:50:10.516Z,79.66
2023-05-22T06:52:39.208Z,80.09
2023-05-22T06:55:10.672Z,79.99
2023-05-22T06:57:39.494Z,80.05
2023-05-22T07:00:12.818Z,80.06
2023-05-22T07:02:41.516Z,80.10
2023-05-22T07:05:10.333Z,80.04
2023-05-22T07:07:38.950Z,80.06
2023-05-22T07:10:10.392Z,79.91
2023-05-22T07:12:39.139Z,80.08
2023-05-22T07:15:12.201Z,79.81
2023-05-22T07:17:41.963Z,79.88
2023-05-22T07:20:12.026Z,79.59
2023-05-22T07:22:40.347Z,79.43
2023-05-22T07:25:11.092Z,79.21
2023-05-22T07:27:39.510Z,79.13
2023-05-22T07:30:10.073Z,78.97
2023-05-22T07:32:39.054Z,79.30
2023-05-22T07:35:10.733Z,79.06
2023-05-22T07:37:39.333Z,79.21
2023-05-22T07:40:11.275Z,78.46
2023-05-22T07:42:39.672Z,78.46
2023-05-22T07:45:09.732Z,78.31
2023-05-22T07:47:38.727Z,78.19
2023-05-22T07:50:09.692Z,77.87
2023-05-22T07:52:38.594Z,77.22
2023-05-22T07:55:11.302Z,76.83
2023-05-22T07:57:40.789Z,76.41
2023-05-22T08:00:14.413Z,75.97
2023-05-22T08:02:45.063Z,75.23
2023-05-22T08:05:14.030Z,74.83
2023-05-22T08:07:42.875Z,74.24
2023-05-22T08:10:18.743Z,73.51
2023-05-22T08:12:47.592Z,72.81
2023-05-22T08:15:15.932Z,71.86
2023-05-22T08:17:44.271Z,70.94
2023-05-22T08:20:13.970Z,70.50
2023-05-22T08:22:42.503Z,70.13
2023-05-22T08:25:11.430Z,69.51
2023-05-22T08:27:41.296Z,69.34
2023-05-22T08:30:10.550Z,69.32
2023-05-22T08:32:39.448Z,69.73
2023-05-22T08:35:09.262Z,70.00
2023-05-22T08:37:37.828Z,69.78
2023-05-22T08:40:08.969Z,70.21
2023-05-22T08:42:37.790Z,70.55
2023-05-22T08:45:10.541Z,70.56
2023-05-22T08:47:40.880Z,70.51
2023-05-22T08:50:10.750Z,71.17
2023-05-22T08:52:49.265Z,71.51
2023-05-22T08:55:19.615Z,71.88
2023-05-22T08:57:48.857Z,71.84
2023-05-22T09:00:20.887Z,72.36
2023-05-22T09:02:52.540Z,72.34
2023-05-22T09:05:21.462Z,72.33
2023-05-22T09:07:50.059Z,72.26
2023-05-22T09:10:19.283Z,72.37
2023-05-22T09:13:08.176Z,72.08
2023-05-22T09:15:39.143Z,72.17
2023-05-22T09:18:08.523Z,72.24
2023-05-22T09:20:40.576Z,72.58
2023-05-22T09:23:17.941Z,72.50
2023-05-22T09:25:47.772Z,72.35
2023-05-22T09:28:16.189Z,72.71
2023-05-22T09:30:51.035Z,72.73
2023-05-22T09:33:19.776Z,72.72
2023-05-22T09:35:48.429Z,72.64
2023-05-22T09:38:17.164Z,72.34
2023-05-22T09:40:45.650Z,72.47
2023-05-22T09:43:19.599Z,72.55
2023-05-22T09:45:49.375Z,72.50
2023-05-22T09:48:20.257Z,72.40
2023-05-22T09:50:49.711Z,72.51
2023-05-22T09:53:20.581Z,71.81
2023-05-22T09:55:49.794Z,71.81
2023-05-22T09:58:21.067Z,71.71
2023-05-22T10:00:51.909Z,71.06
2023-05-22T10:03:26.420Z,70.26
2023-05-22T10:05:57.287Z,69.63
2023-05-22T10:08:29.961Z,68.34
2023-05-22T10:10:59.136Z,68.06
2023-05-22T10:13:28.817Z,67.37
2023-05-22T10:16:00.182Z,66.52
2023-05-22T10:18:29.030Z,65.81
2023-05-22T10:20:58.859Z,64.63
2023-05-22T10:23:31.126Z,63.91
2023-05-22T10:26:02.013Z,63.18
2023-05-22T10:28:39.976Z,62.40
2023-05-22T10:31:21.767Z,61.74
2023-05-22T10:33:56.155Z,60.65
2023-05-22T10:36:39.130Z,59.68
2023-05-22T10:39:30.569Z,59.62
2023-05-22T10:41:59.090Z,58.77
2023-05-22T10:44:27.613Z,57.78
2023-05-22T10:46:57.967Z,57.79
2023-05-22T10:49:28.518Z,57.89
2023-05-22T10:51:58.110Z,56.90
2023-05-22T10:54:42.469Z,56.63
2023-05-22T10:57:17.314Z,55.18
2023-05-22T10:59:48.692Z,54.77
2023-05-22T11:02:23.821Z,54.62
2023-05-22T11:04:52.444Z,54.73
2023-05-22T11:07:21.658Z,54.72
2023-05-22T11:09:50.062Z,55.19
2023-05-22T11:12:21.561Z,55.27
2023-05-22T11:14:53.141Z,55.19
2023-05-22T11:17:29.289Z,55.05
2023-05-22T11:20:07.144Z,55.16
2023-05-22T11:22:38.316Z,55.41
2023-05-22T11:25:11.003Z,55.55
2023-05-22T11:27:42.178Z,54.72
2023-05-22T11:30:12.621Z,55.13
2023-05-22T11:32:45.135Z,55.01
2023-05-22T11:35:17.394Z,54.65
2023-05-22T11:37:46.336Z,53.10
2023-05-22T11:40:17.571Z,51.79
2023-05-22T11:42:46.649Z,51.06
2023-05-22T11:45:15.450Z,51.57
2023-05-22T11:47:46.018Z,50.92
2023-05-22T11:50:17.938Z,51.04
2023-05-22T11:52:52.179Z,50.87
2023-05-22T11:55:20.888Z,49.70
2023-05-22T11:57:50.536Z,48.75
2023-05-22T12:00:20.666Z,48.38
2023-05-22T12:02:50.868Z,48.02
2023-05-22T12:05:22.663Z,47.97
2023-05-22T12:07:51.674Z,47.23
2023-05-22T12:10:20.654Z,47.32
2023-05-22T12:12:50.594Z,46.62
2023-05-22T12:15:21.493Z,45.36
2023-05-22T12:17:51.536Z,44.90
2023-05-22T12:20:20.508Z,44.36
2023-05-22T12:22:51.074Z,43.81
2023-05-22T12:25:20.310Z,42.99
2023-05-22T12:27:49.408Z,42.12
2023-05-22T12:30:18.946Z,41.08
2023-05-22T12:32:52.081Z,40.77
2023-05-22T12:35:21.118Z,40.35
2023-05-22T12:37:50.421Z,39.16
2023-05-22T12:40:19.629Z,38.59
2023-05-22T12:42:49.178Z,38.01
2023-05-22T12:45:18.754Z,37.95
2023-05-22T12:47:47.409Z,37.47
2023-05-22T12:50:17.315Z,37.40
2023-05-22T12:52:46.384Z,36.25
2023-05-22T12:55:14.655Z,37.01
2023-05-22T12:57:43.580Z,35.99
2023-05-22T13:00:13.748Z,35.07
2023-05-22T13:02:42.788Z,35.61
2023-05-22T13:05:11.470Z,34.69
2023-05-22T13:07:41.284Z,33.24
2023-05-22T13:10:10.907Z,33.14
2023-05-22T13:12:39.608Z,34.06
2023-05-22T13:15:11.615Z,36.43
2023-05-22T13:17:40.121Z,37.40
2023-05-22T13:20:10.436Z,37.52
2023-05-22T13:22:40.573Z,36.11
2023-05-22T13:25:10.129Z,35.24
2023-05-22T13:27:39.106Z,33.63
2023-05-22T13:30:09.630Z,33.74
2023-05-22T13:32:38.649Z,33.49
2023-05-22T13:35:08.832Z,34.66
2023-05-22T13:37:37.783Z,35.63
2023-05-22T13:40:10.514Z,37.11
2023-05-22T13:42:39.849Z,37.86
2023-05-22T13:45:10.655Z,37.27
2023-05-22T13:47:39.668Z,36.65
2023-05-22T13:50:10.551Z,35.06
2023-05-22T13:52:39.132Z,34.83
2023-05-22T13:55:10.546Z,35.69
2023-05-22T13:57:40.637Z,34.25
2023-05-22T14:00:11.480Z,34.33
2023-05-22T14:02:39.908Z,33.33
2023-05-22T14:05:09.897Z,33.82
2023-05-22T14:07:39.494Z,35.40
2023-05-22T14:10:11.515Z,37.27
2023-05-22T14:12:39.870Z,36.59
2023-05-22T14:15:10.346Z,35.42
2023-05-22T14:17:39.587Z,36.11
2023-05-22T14:20:10.141Z,37.91
2023-05-22T14:22:55.924Z,39.50
2023-05-22T14:25:27.569Z,40.98
2023-05-22T14:27:56.034Z,39.97
2023-05-22T14:30:24.635Z,41.28
2023-05-22T14:32:53.182Z,42.12
2023-05-22T14:35:22.080Z,43.12
2023-05-22T14:37:50.661Z,43.37
2023-05-22T14:40:19.898Z,44.27
2023-05-22T14:42:51.862Z,43.91
2023-05-22T14:45:21.900Z,43.20
2023-05-22T14:47:50.651Z,43.02
2023-05-22T14:50:20.762Z,43.43
2023-05-22T14:52:49.765Z,42.87
2023-05-22T14:55:18.748Z,42.72
2023-05-22T14:57:47.050Z,42.07
2023-05-22T15:00:18.374Z,39.87
2023-05-22T15:02:46.926Z,37.90
2023-05-22T15:05:15.697Z,36.49
2023-05-22T15:07:46.098Z,36.06
2023-05-22T15:10:15.949Z,35.26
2023-05-22T15:12:44.503Z,35.39
2023-05-22T15:15:13.357Z,35.04
2023-05-22T15:17:43.267Z,36.09
2023-05-22T15:20:13.200Z,35.27
2023-05-22T15:22:41.681Z,35.14
2023-05-22T15:25:14.815Z,34.34
2023-05-22T15:27:44.012Z,34.69
2023-05-22T15:30:13.148Z,34.27
2023-05-22T15:32:42.899Z,34.77
2023-05-22T15:35:13.992Z,33.84
2023-05-22T15:37:42.628Z,33.02
2023-05-22T15:40:16.394Z,32.27
2023-05-22T15:42:44.767Z,32.50
2023-05-22T15:45:13.623Z,32.22
2023-05-22T15:47:43.485Z,31.78
2023-05-22T15:50:12.293Z,31.41
2023-05-22T15:52:41.043Z,32.50
2023-05-22T15:55:10.056Z,31.86
2023-05-22T15:57:39.355Z,32.68
2023-05-22T16:00:09.778Z,32.67
2023-05-22T16:02:38.404Z,31.94
2023-05-22T16:05:09.313Z,31.37
2023-05-22T16:07:38.191Z,31.75
2023-05-22T16:10:08.496Z,31.94
2023-05-22T16:12:37.198Z,30.86
2023-05-22T16:15:08.421Z,31.36
2023-05-22T16:17:36.974Z,31.44
2023-05-22T16:20:08.734Z,31.35
2023-05-22T16:22:47.993Z,31.06
2023-05-22T16:25:17.828Z,30.94
2023-05-22T16:27:46.539Z,30.79
2023-05-22T16:30:16.729Z,30.47
2023-05-22T16:32:46.889Z,30.82
2023-05-22T16:35:19.644Z,30.90
2023-05-22T16:37:48.113Z,30.99
2023-05-22T16:40:17.494Z,30.57
2023-05-22T16:42:46.016Z,30.45
2023-05-22T16:45:14.350Z,31.73
2023-05-22T16:47:42.833Z,31.92
2023-05-22T16:50:11.153Z,31.95
2023-05-22T16:52:41.112Z,32.25
2023-05-22T16:55:10.689Z,31.60
2023-05-22T16:57:39.676Z,31.07
2023-05-22T17:00:12.289Z,30.83
2023-05-22T17:02:41.479Z,29.76
2023-05-22T17:05:10.161Z,29.44
2023-05-22T17:07:40.256Z,30.20
2023-05-22T17:10:09.616Z,30.09
2023-05-22T17:12:38.971Z,30.89
2023-05-22T17:15:09.264Z,31.71
2023-05-22T17:17:38.231Z,32.03
2023-05-22T17:20:08.400Z,32.25
2023-05-22T17:22:39.364Z,32.58
2023-05-22T17:25:10.780Z,33.04
2023-05-22T17:27:39.101Z,32.57
2023-05-22T17:30:09.331Z,32.64
2023-05-22T17:32:38.561Z,33.04
2023-05-22T17:35:09.436Z,33.91
2023-05-22T17:37:40.866Z,33.92
2023-05-22T17:40:11.973Z,34.07
2023-05-22T17:42:40.387Z,35.31
2023-05-22T17:45:10.930Z,36.01
2023-05-22T17:47:39.519Z,38.27
2023-05-22T17:50:09.240Z,39.95
2023-05-22T17:52:40.332Z,39.80
2023-05-22T17:55:11.078Z,38.53
2023-05-22T17:57:39.988Z,38.97
2023-05-22T18:00:10.574Z,38.86
2023-05-22T18:02:39.202Z,39.12
2023-05-22T18:05:09.558Z,38.90
2023-05-22T18:07:38.452Z,39.60
2023-05-22T18:10:08.527Z,40.28
2023-05-22T18:12:38.651Z,41.55
2023-05-22T18:15:10.690Z,42.73
2023-05-22T18:17:39.529Z,43.66
2023-05-22T18:20:09.407Z,45.05
2023-05-22T18:22:39.857Z,46.48
2023-05-22T18:25:10.827Z,46.85
2023-05-22T18:27:40.537Z,48.65
2023-05-22T18:30:12.312Z,50.47
2023-05-22T18:32:40.813Z,52.18
2023-05-22T18:35:11.001Z,53.61
2023-05-22T18:37:39.358Z,54.83
2023-05-22T18:40:10.947Z,55.92
2023-05-22T18:42:40.898Z,56.84
2023-05-22T18:45:11.983Z,57.78
2023-05-22T18:47:40.359Z,58.32
2023-05-22T18:50:10.054Z,59.19
2023-05-22T18:52:39.983Z,59.85
2023-05-22T18:55:09.563Z,60.26
2023-05-22T18:57:38.354Z,61.12
2023-05-22T19:00:10.688Z,61.78
2023-05-22T19:02:39.219Z,61.67
2023-05-22T19:05:09.223Z,61.90
2023-05-22T19:07:38.298Z,62.16
2023-05-22T19:10:08.785Z,62.96
2023-05-22T19:12:37.544Z,63.22
2023-05-22T19:15:10.141Z,63.74
2023-05-22T19:17:38.900Z,64.09
2023-05-22T19:20:09.535Z,64.33
2023-05-22T19:22:39.544Z,64.13
2023-05-22T19:25:09.568Z,64.83
2023-05-22T19:27:39.284Z,64.84
2023-05-22T19:30:10.964Z,65.12
2023-05-22T19:32:39.411Z,65.73
2023-05-22T19:35:08.818Z,66.07
2023-05-22T19:37:37.359Z,66.57
2023-05-22T19:40:07.438Z,66.70
2023-05-22T19:42:38.263Z,66.81
2023-05-22T19:45:09.769Z,67.10
2023-05-22T19:47:38.402Z,67.41
2023-05-22T19:50:09.347Z,67.61
2023-05-22T19:52:38.321Z,67.83
2023-05-22T19:55:10.926Z,68.03
2023-05-22T19:57:39.489Z,68.18
2023-05-22T20:00:11.759Z,68.19
2023-05-22T20:02:40.931Z,68.77
2023-05-22T20:05:13.501Z,68.93
2023-05-22T20:07:42.814Z,68.80
2023-05-22T20:10:12.705Z,68.77
2023-05-22T20:12:41.290Z,69.29
2023-05-22T20:15:14.979Z,69.50
2023-05-22T20:17:47.711Z,69.59
2023-05-22T20:20:16.464Z,69.54
2023-05-22T20:22:44.937Z,69.80
2023-05-22T20:25:13.818Z,69.84
2023-05-22T20:27:42.130Z,70.00
2023-05-22T20:30:13.673Z,70.15
2023-05-22T20:32:42.716Z,70.14
2023-05-22T20:35:12.842Z,69.92
2023-05-22T20:37:42.306Z,70.49
2023-05-22T20:40:13.060Z,70.31
2023-05-22T20:42:42.540Z,70.38
2023-05-22T20:45:15.649Z,70.39
2023-05-22T20:47:45.080Z,70.54
2023-05-22T20:50:13.945Z,70.73
2023-05-22T20:52:42.293Z,70.88
2023-05-22T20:55:11.478Z,71.01
2023-05-22T20:57:40.109Z,71.35
2023-05-22T21:00:13.911Z,71.79
2023-05-22T21:02:42.452Z,71.93
2023-05-22T21:05:11.514Z,72.05
2023-05-22T21:07:39.854Z,72.46
2023-05-22T21:10:10.483Z,72.52
2023-05-22T21:12:39.070Z,72.85
2023-05-22T21:15:10.040Z,73.19
2023-05-22T21:17:40.453Z,73.59
2023-05-22T21:20:10.559Z,73.67
2023-05-22T21:22:40.941Z,73.99
2023-05-22T21:25:11.148Z,74.37
2023-05-22T21:27:39.476Z,74.62
2023-05-22T21:30:12.579Z,75.16
2023-05-22T21:32:42.389Z,75.24
2023-05-22T21:35:11.505Z,75.76
2023-05-22T21:37:40.746Z,75.98
2023-05-22T21:40:10.477Z,76.27
2023-05-22T21:42:46.506Z,76.35
2023-05-22T21:45:15.960Z,76.49
2023-05-22T21:47:45.756Z,76.49
2023-05-22T21:50:14.273Z,76.71
2023-05-22T21:52:44.253Z,76.55
2023-05-22T21:55:12.757Z,76.52
2023-05-22T21:57:41.340Z,76.62
2023-05-22T22:00:11.328Z,76.41
2023-05-22T22:02:39.776Z,76.62
2023-05-22T22:05:11.657Z,76.81
2023-05-22T22:07:40.179Z,76.67
2023-05-22T22:10:10.056Z,76.99
2023-05-22T22:12:38.722Z,76.85
2023-05-22T22:15:08.690Z,76.48
2023-05-22T22:17:38.192Z,76.57
2023-05-22T22:20:09.484Z,76.58
2023-05-22T22:22:38.931Z,76.70
2023-05-22T22:25:08.996Z,76.56
2023-05-22T22:27:38.638Z,76.41
2023-05-22T22:30:09.898Z,76.23
2023-05-22T22:32:38.516Z,76.23
2023-05-22T22:35:11.245Z,75.81
2023-05-22T22:37:39.673Z,76.18
2023-05-22T22:40:10.169Z,75.51
2023-05-22T22:42:39.105Z,75.86
2023-05-22T22:45:12.830Z,75.90
2023-05-22T22:47:41.384Z,75.67
2023-05-22T22:50:12.647Z,75.71
2023-05-22T22:52:45.804Z,75.76
2023-05-22T22:55:14.608Z,75.80
2023-05-22T22:57:44.846Z,75.68
2023-05-22T23:00:14.715Z,75.99
2023-05-22T23:02:43.296Z,75.98
2023-05-22T23:05:13.582Z,76.13
2023-05-22T23:07:42.165Z,76.29
2023-05-22T23:10:11.537Z,76.40
2023-05-22T23:12:39.909Z,76.41
2023-05-22T23:15:13.672Z,76.64
2023-05-22T23:17:42.333Z,77.10
2023-05-22T23:20:12.815Z,77.65
2023-05-22T23:22:41.277Z,77.82
2023-05-22T23:25:11.240Z,78.34
2023-05-22T23:27:39.710Z,79.14
2023-05-22T23:30:10.053Z,79.39
2023-05-22T23:32:38.629Z,79.77
2023-05-22T23:35:09.662Z,79.47
2023-05-22T23:37:39.516Z,79.76
2023-05-22T23:40:09.977Z,80.34
2023-05-22T23:42:38.575Z,80.68
2023-05-22T23:45:09.335Z,80.72
2023-05-22T23:47:38.205Z,81.13
2023-05-22T23:50:08.444Z,81.15
2023-05-22T23:52:41.141Z,81.27
2023-05-22T23:55:11.531Z,81.74
2023-05-22T23:57:39.999Z,81.66
